createdAt,value
2022-12-18T00:02:08.027Z,-3.97
2022-12-18T00:06:10.960Z,-4.13
2022-12-18T00:10:15.507Z,-4.13
2022-12-18T00:14:17.110Z,-4.15
2022-12-18T00:18:20.667Z,-4.14
2022-12-18T00:22:23.613Z,-3.78
2022-12-18T00:26:26.048Z,-3.74
2022-12-18T00:30:27.622Z,-3.73
2022-12-18T00:34:28.988Z,-3.79
2022-12-18T00:38:31.804Z,-4.02
2022-12-18T00:42:33.190Z,-4.08
2022-12-18T00:46:34.595Z,-4.11
2022-12-18T00:50:36.009Z,-4.26
2022-12-18T00:54:38.766Z,-4.17
2022-12-18T00:58:40.149Z,-4.15
2022-12-18T01:02:41.744Z,-4.12
2022-12-18T01:06:43.226Z,-4.13
2022-12-18T01:10:45.957Z,-4.10
2022-12-18T01:14:47.642Z,-4.19
2022-12-18T01:18:51.587Z,-4.08
2022-12-18T01:22:52.965Z,-4.08
2022-12-18T01:26:55.734Z,-4.16
2022-12-18T01:30:57.074Z,-4.09
2022-12-18T01:34:58.575Z,-4.08
2022-12-18T01:39:00.648Z,-4.24
2022-12-18T01:43:03.579Z,-4.35
2022-12-18T01:47:05.017Z,-4.27
2022-12-18T01:51:06.974Z,-4.26
2022-12-18T01:55:10.058Z,-4.14
2022-12-18T01:59:14.081Z,-4.18
2022-12-18T02:03:15.498Z,-4.11
2022-12-18T02:07:21.312Z,-4.23
2022-12-18T02:11:29.175Z,-4.22
2022-12-18T02:15:36.937Z,-4.13
2022-12-18T02:19:47.776Z,-4.28
2022-12-18T02:23:54.069Z,-4.25
2022-12-18T02:27:57.393Z,-4.34
2022-12-18T02:31:59.697Z,-4.32
2022-12-18T02:36:02.094Z,-4.28
2022-12-18T02:40:04.530Z,-4.22
2022-12-18T02:44:10.005Z,-4.13
2022-12-18T02:48:11.403Z,-4.24
2022-12-18T02:52:19.459Z,-4.34
2022-12-18T02:56:22.429Z,-4.22
2022-12-18T03:00:28.069Z,-4.36
2022-12-18T03:04:31.442Z,-4.24
2022-12-18T03:08:36.484Z,-4.24
2022-12-18T03:12:41.309Z,-4.27
2022-12-18T03:16:44.569Z,-4.11
2022-12-18T03:20:46.907Z,-3.82
2022-12-18T03:24:49.632Z,-3.76
2022-12-18T03:28:52.453Z,-4.01
2022-12-18T03:33:00.539Z,-3.81
2022-12-18T03:37:02.136Z,-3.76
2022-12-18T03:41:07.732Z,-4.06
2022-12-18T03:45:11.182Z,-4.10
2022-12-18T03:49:16.110Z,-4.09
2022-12-18T03:53:24.177Z,-3.85
2022-12-18T03:57:29.331Z,-3.68
2022-12-18T04:01:32.712Z,-3.97
2022-12-18T04:05:36.746Z,-3.75
2022-12-18T04:09:39.569Z,-3.62
2022-12-18T04:13:43.383Z,-3.90
2022-12-18T04:17:48.551Z,-3.98
2022-12-18T04:21:51.309Z,-4.01
2022-12-18T04:25:52.714Z,-3.99
2022-12-18T04:29:54.061Z,-3.99
2022-12-18T04:33:55.444Z,-3.68
2022-12-18T04:37:58.200Z,-3.57
2022-12-18T04:41:59.559Z,-3.51
2022-12-18T04:46:04.158Z,-3.74
2022-12-18T04:50:06.107Z,-3.71
2022-12-18T04:54:08.810Z,-3.73
2022-12-18T04:58:10.161Z,-3.88
2022-12-18T05:02:11.758Z,-3.71
2022-12-18T05:06:13.311Z,-3.69
2022-12-18T05:10:16.166Z,-3.77
2022-12-18T05:14:17.587Z,-3.67
2022-12-18T05:18:18.960Z,-3.69
2022-12-18T05:22:20.332Z,-3.66
2022-12-18T05:26:23.156Z,-3.62
2022-12-18T05:30:24.527Z,-3.70
2022-12-18T05:34:25.893Z,-3.77
2022-12-18T05:38:27.976Z,-3.73
2022-12-18T05:42:31.094Z,-3.62
2022-12-18T05:46:32.687Z,-3.77
2022-12-18T05:50:34.804Z,-3.74
2022-12-18T05:54:36.164Z,-3.79
2022-12-18T05:58:38.989Z,-3.77
2022-12-18T06:02:40.510Z,-3.89
2022-12-18T06:06:42.012Z,-3.93
2022-12-18T06:10:43.350Z,-3.88
2022-12-18T06:14:46.052Z,-3.75
2022-12-18T06:18:47.431Z,-3.74
2022-12-18T06:22:48.842Z,-3.76
2022-12-18T06:26:51.024Z,-3.77
2022-12-18T06:30:53.738Z,-3.81
2022-12-18T06:34:55.118Z,-3.98
2022-12-18T06:38:56.986Z,-3.90
2022-12-18T06:42:58.352Z,-3.91
2022-12-18T06:47:01.101Z,-3.86
2022-12-18T06:51:02.590Z,-3.96
2022-12-18T06:55:04.360Z,-3.82
2022-12-18T06:59:05.759Z,-3.78
2022-12-18T07:03:08.579Z,-3.79
2022-12-18T07:07:10.003Z,-3.86
2022-12-18T07:11:11.500Z,-3.91
2022-12-18T07:15:12.905Z,-3.93
2022-12-18T07:19:15.619Z,-3.97
2022-12-18T07:23:16.967Z,-3.99
2022-12-18T07:27:18.381Z,-3.94
2022-12-18T07:31:21.609Z,-3.95
2022-12-18T07:35:25.445Z,-3.94
2022-12-18T07:39:27.113Z,-4.01
2022-12-18T07:43:28.501Z,-4.07
2022-12-18T07:47:30.092Z,-4.12
2022-12-18T07:51:33.628Z,-4.18
2022-12-18T07:56:00.020Z,-4.16
2022-12-18T07:59:56.312Z,-4.15
2022-12-18T08:03:58.056Z,-4.02
2022-12-18T08:08:00.776Z,-3.80
2022-12-18T08:12:02.115Z,-3.87
2022-12-18T08:16:04.713Z,-3.63
2022-12-18T08:20:06.509Z,-3.54
2022-12-18T08:24:10.765Z,-3.64
2022-12-18T08:28:12.279Z,-3.67
2022-12-18T08:32:13.717Z,-3.85
2022-12-18T08:36:15.115Z,-3.85
2022-12-18T08:40:17.910Z,-3.77
2022-12-18T08:44:19.311Z,-3.82
2022-12-18T08:48:22.365Z,-4.08
2022-12-18T08:52:23.836Z,-4.11
2022-12-18T08:56:26.552Z,-4.03
2022-12-18T09:00:28.098Z,-3.79
2022-12-18T09:04:29.458Z,-3.75
2022-12-18T09:08:30.866Z,-3.77
2022-12-18T09:12:33.576Z,-4.02
2022-12-18T09:16:34.973Z,-3.94
2022-12-18T09:20:36.355Z,-3.73
2022-12-18T09:24:37.732Z,-3.78
2022-12-18T09:28:40.736Z,-3.65
2022-12-18T09:32:42.386Z,-3.66
2022-12-18T09:36:43.831Z,-3.82
2022-12-18T09:40:46.139Z,-4.17
2022-12-18T09:44:51.246Z,-4.05
2022-12-18T09:48:53.972Z,-3.89
2022-12-18T09:52:57.681Z,-3.79
2022-12-18T09:56:59.157Z,-3.68
2022-12-18T10:01:01.881Z,-3.63
2022-12-18T10:05:05.371Z,-3.51
2022-12-18T10:09:11.480Z,-3.56
2022-12-18T10:13:19.825Z,-3.63
2022-12-18T10:17:27.433Z,-3.64
2022-12-18T10:21:32.965Z,-3.91
2022-12-18T10:25:39.620Z,-3.77
2022-12-18T10:29:41.625Z,-3.74
2022-12-18T10:33:44.454Z,-3.56
2022-12-18T10:38:01.146Z,-3.41
2022-12-18T10:42:10.588Z,-3.37
2022-12-18T10:46:16.631Z,-3.30
2022-12-18T10:50:26.299Z,-3.20
2022-12-18T10:54:33.900Z,-3.05
2022-12-18T10:58:36.838Z,-3.29
2022-12-18T11:02:39.010Z,-3.49
2022-12-18T11:06:53.586Z,-3.58
2022-12-18T11:10:54.956Z,-3.51
2022-12-18T11:14:56.554Z,-3.64
2022-12-18T11:19:11.496Z,-4.01
2022-12-18T11:23:14.449Z,-3.94
2022-12-18T11:27:18.672Z,-3.85
2022-12-18T11:31:26.953Z,-3.73
2022-12-18T11:35:35.642Z,-3.60
2022-12-18T11:39:40.294Z,-3.43
2022-12-18T11:43:45.240Z,-3.22
2022-12-18T11:47:50.036Z,-3.31
2022-12-18T11:51:55.162Z,-3.40
2022-12-18T11:56:05.771Z,-3.56
2022-12-18T12:00:12.812Z,-3.51
2022-12-18T12:04:38.399Z,-3.47
2022-12-18T12:08:48.746Z,-3.44
2022-12-18T12:13:01.008Z,-3.30
2022-12-18T12:17:05.426Z,-3.15
2022-12-18T12:21:08.996Z,-3.11
2022-12-18T12:25:19.358Z,-3.01
2022-12-18T12:29:29.683Z,-3.19
2022-12-18T12:33:38.389Z,-3.00
2022-12-18T12:37:49.483Z,-2.78
2022-12-18T12:41:50.855Z,-2.66
2022-12-18T12:45:55.203Z,-2.69
2022-12-18T12:49:57.606Z,-2.51
2022-12-18T12:54:01.226Z,-2.65
2022-12-18T12:58:08.034Z,-2.57
2022-12-18T13:02:16.230Z,-2.54
2022-12-18T13:06:20.013Z,-2.81
2022-12-18T13:10:27.327Z,-2.78
2022-12-18T13:14:30.085Z,-2.78
2022-12-18T13:18:33.232Z,-2.76
2022-12-18T13:22:36.130Z,-2.71
2022-12-18T13:26:37.548Z,-2.65
2022-12-18T13:30:42.690Z,-2.77
2022-12-18T13:34:46.100Z,-2.77
2022-12-18T13:38:47.547Z,-2.69
2022-12-18T13:42:50.053Z,-2.69
2022-12-18T13:46:52.594Z,-2.75
2022-12-18T13:50:58.339Z,-2.94
2022-12-18T13:55:00.895Z,-2.88
2022-12-18T13:59:13.202Z,-2.92
2022-12-18T14:03:22.121Z,-2.82
2022-12-18T14:07:26.912Z,-2.85
2022-12-18T14:11:33.125Z,-2.78
2022-12-18T14:15:36.496Z,-2.98
2022-12-18T14:19:41.499Z,-2.94
2022-12-18T14:23:45.032Z,-2.79
2022-12-18T14:27:47.726Z,-2.94
2022-12-18T14:32:03.964Z,-2.84
2022-12-18T14:36:06.313Z,-3.06
2022-12-18T14:40:14.261Z,-3.29
2022-12-18T14:44:15.634Z,-3.15
2022-12-18T14:48:23.260Z,-3.24
2022-12-18T14:52:28.431Z,-3.49
2022-12-18T14:56:32.021Z,-3.58
2022-12-18T15:00:33.433Z,-3.67
2022-12-18T15:04:35.787Z,-3.79
2022-12-18T15:08:37.991Z,-4.10
2022-12-18T15:12:41.832Z,-3.90
2022-12-18T15:16:46.135Z,-4.08
2022-12-18T15:20:49.170Z,-4.19
2022-12-18T15:24:50.675Z,-4.38
2022-12-18T15:28:55.716Z,-4.36
2022-12-18T15:33:11.970Z,-4.70
2022-12-18T15:37:13.351Z,-4.89
2022-12-18T15:41:17.836Z,-5.04
2022-12-18T15:45:24.144Z,-5.03
2022-12-18T15:49:25.594Z,-5.11
2022-12-18T15:53:30.032Z,-5.16
2022-12-18T15:57:31.447Z,-5.29
2022-12-18T16:01:37.090Z,-5.33
2022-12-18T16:05:42.312Z,-5.18
2022-12-18T16:09:43.714Z,-5.55
2022-12-18T16:13:45.064Z,-5.63
2022-12-18T16:17:48.873Z,-5.82
2022-12-18T16:21:51.102Z,-5.92
2022-12-18T16:25:52.532Z,-5.96
2022-12-18T16:29:53.948Z,-5.96
2022-12-18T16:34:10.212Z,-6.12
2022-12-18T16:38:12.922Z,-6.15
2022-12-18T16:42:15.602Z,-6.22
2022-12-18T16:46:17.056Z,-6.37
2022-12-18T16:50:18.580Z,-6.46
2022-12-18T16:54:21.500Z,-6.49
2022-12-18T16:58:23.143Z,-6.48
2022-12-18T17:02:25.960Z,-6.36
2022-12-18T17:06:29.490Z,-6.50
2022-12-18T17:10:32.266Z,-6.79
2022-12-18T17:14:33.648Z,-6.77
2022-12-18T17:18:35.170Z,-6.84
2022-12-18T17:22:36.554Z,-6.86
2022-12-18T17:26:39.408Z,-6.82
2022-12-18T17:30:40.812Z,-6.89
2022-12-18T17:34:42.187Z,-7.04
2022-12-18T17:38:43.657Z,-7.11
2022-12-18T17:42:46.398Z,-7.26
2022-12-18T17:46:47.895Z,-7.43
2022-12-18T17:50:49.340Z,-7.38
2022-12-18T17:54:50.692Z,-7.36
2022-12-18T17:58:53.437Z,-7.39
2022-12-18T18:02:55.067Z,-7.55
2022-12-18T18:06:56.624Z,-7.57
2022-12-18T18:10:58.454Z,-7.62
2022-12-18T18:15:01.198Z,-7.64
2022-12-18T18:19:04.021Z,-7.77
2022-12-18T18:23:05.432Z,-7.68
2022-12-18T18:27:06.910Z,-7.80
2022-12-18T18:31:10.586Z,-7.92
2022-12-18T18:35:24.621Z,-7.93
2022-12-18T18:39:33.605Z,-7.95
2022-12-18T18:43:34.970Z,-8.06
2022-12-18T18:47:37.760Z,-7.91
2022-12-18T18:51:39.147Z,-8.03
2022-12-18T18:55:40.528Z,-8.09
2022-12-18T18:59:42.176Z,-7.98
2022-12-18T19:03:45.438Z,-7.93
2022-12-18T19:07:46.827Z,-8.04
2022-12-18T19:11:48.243Z,-7.97
2022-12-18T19:15:49.651Z,-7.78
2022-12-18T19:19:52.554Z,-7.58
2022-12-18T19:23:53.949Z,-7.40
2022-12-18T19:27:55.332Z,-7.24
2022-12-18T19:31:56.772Z,-7.21
2022-12-18T19:35:59.676Z,-7.09
2022-12-18T19:40:02.272Z,-6.79
2022-12-18T19:44:08.826Z,-6.79
2022-12-18T19:48:10.219Z,-6.70
2022-12-18T19:52:13.030Z,-6.87
2022-12-18T19:56:15.801Z,-6.86
2022-12-18T20:00:18.967Z,-6.70
2022-12-18T20:04:20.568Z,-6.58
2022-12-18T20:08:23.356Z,-6.90
2022-12-18T20:12:24.759Z,-7.00
2022-12-18T20:16:26.202Z,-6.70
2022-12-18T20:20:28.198Z,-6.68
2022-12-18T20:24:31.132Z,-6.66
2022-12-18T20:28:32.563Z,-6.57
2022-12-18T20:32:37.078Z,-6.57
2022-12-18T20:36:38.837Z,-6.42
2022-12-18T20:40:43.717Z,-6.32
2022-12-18T20:44:45.323Z,-6.24
2022-12-18T20:48:46.755Z,-6.39
2022-12-18T20:52:48.161Z,-6.37
2022-12-18T20:56:50.911Z,-6.20
2022-12-18T21:01:01.855Z,-6.16
2022-12-18T21:05:03.425Z,-6.00
2022-12-18T21:09:04.817Z,-6.02
2022-12-18T21:13:08.790Z,-6.12
2022-12-18T21:17:12.775Z,-5.94
2022-12-18T21:21:14.197Z,-5.91
2022-12-18T21:25:15.642Z,-5.78
2022-12-18T21:29:19.777Z,-5.77
2022-12-18T21:33:21.313Z,-5.68
2022-12-18T21:37:22.705Z,-5.56
2022-12-18T21:41:24.326Z,-5.42
2022-12-18T21:45:27.053Z,-5.44
2022-12-18T21:49:28.439Z,-5.40
2022-12-18T21:53:29.821Z,-5.39
2022-12-18T21:57:31.257Z,-5.40
2022-12-18T22:01:37.732Z,-5.42
2022-12-18T22:05:39.317Z,-5.33
2022-12-18T22:09:41.165Z,-5.18
2022-12-18T22:13:42.501Z,-5.11
2022-12-18T22:17:45.232Z,-5.01
2022-12-18T22:21:47.497Z,-4.99
2022-12-18T22:25:48.855Z,-5.01
2022-12-18T22:29:50.226Z,-5.06
2022-12-18T22:33:52.972Z,-5.03
2022-12-18T22:37:54.369Z,-5.11
2022-12-18T22:41:56.141Z,-4.89
2022-12-18T22:45:57.718Z,-4.87
2022-12-18T22:50:00.577Z,-4.87
2022-12-18T22:54:01.951Z,-4.94
2022-12-18T22:58:03.528Z,-4.86
2022-12-18T23:02:04.967Z,-4.85
2022-12-18T23:06:09.120Z,-4.73
2022-12-18T23:10:10.513Z,-4.75
2022-12-18T23:14:12.068Z,-4.83
2022-12-18T23:18:13.483Z,-4.87
2022-12-18T23:22:16.227Z,-4.82
2022-12-18T23:26:18.828Z,-4.75
2022-12-18T23:30:20.216Z,-4.64
2022-12-18T23:34:23.411Z,-4.63
2022-12-18T23:38:26.123Z,-4.58
2022-12-18T23:42:27.476Z,-4.52
2022-12-18T23:46:30.598Z,-4.46
2022-12-18T23:50:34.561Z,-4.60
2022-12-18T23:54:37.275Z,-4.64
2022-12-18T23:58:39.129Z,-4.84
